createdAt,value
2017-07-27T00:00:39.961Z,17.68
2017-07-27T00:01:48.845Z,17.74
2017-07-27T00:02:58.054Z,17.7
2017-07-27T00:04:07.913Z,17.71
2017-07-27T00:05:17.770Z,17.68
2017-07-27T00:06:26.972Z,17.75
2017-07-27T00:07:36.185Z,17.68
2017-07-27T00:08:45.719Z,17.64
2017-07-27T00:09:55.245Z,17.66
2017-07-27T00:11:04.773Z,17.66
2017-07-27T00:12:14.680Z,17.7
2017-07-27T00:13:23.890Z,17.62
2017-07-27T00:14:33.299Z,17.62
2017-07-27T00:15:42.506Z,17.68
2017-07-27T00:16:52.086Z,17.64
2017-07-27T00:18:01.443Z,17.68
2017-07-27T00:19:10.969Z,17.66
2017-07-27T00:20:20.170Z,17.66
2017-07-27T00:21:29.705Z,17.66
2017-07-27T00:22:38.916Z,17.62
2017-07-27T00:23:48.279Z,17.7
2017-07-27T00:24:57.159Z,17.68
2017-07-27T00:26:07.011Z,17.64
2017-07-27T00:27:15.896Z,17.66
2017-07-27T00:28:25.749Z,17.66
2017-07-27T00:29:35.005Z,17.71
2017-07-27T00:30:44.218Z,17.68
2017-07-27T00:31:53.422Z,17.56
2017-07-27T00:33:02.627Z,17.63
2017-07-27T00:34:11.841Z,17.55
2017-07-27T00:35:20.828Z,17.52
2017-07-27T00:36:30.036Z,17.58
2017-07-27T00:37:38.920Z,17.62
2017-07-27T00:38:48.124Z,17.63
2017-07-27T00:39:57.004Z,17.52
2017-07-27T00:41:06.690Z,17.54
2017-07-27T00:42:15.900Z,17.55
2017-07-27T00:43:25.121Z,17.49
2017-07-27T00:44:34.969Z,17.55
2017-07-27T00:45:44.499Z,17.55
2017-07-27T00:46:53.537Z,17.55
2017-07-27T00:48:03.396Z,17.56
2017-07-27T00:49:12.631Z,17.56
2017-07-27T00:50:21.838Z,17.55
2017-07-27T00:51:30.724Z,17.58
2017-07-27T00:52:40.574Z,17.55
2017-07-27T00:53:50.103Z,17.54
2017-07-27T00:54:59.307Z,17.54
2017-07-27T00:56:08.850Z,17.55
2017-07-27T00:57:18.382Z,17.55
2017-07-27T00:58:27.365Z,17.55
2017-07-27T00:59:36.891Z,17.52
2017-07-27T01:00:45.770Z,17.51
2017-07-27T01:01:54.979Z,17.52
2017-07-27T01:03:04.194Z,17.59
2017-07-27T01:04:13.919Z,17.51
2017-07-27T01:05:23.456Z,17.54
2017-07-27T01:06:32.985Z,17.54
2017-07-27T01:07:42.531Z,17.55
2017-07-27T01:08:51.759Z,17.49
2017-07-27T01:10:01.334Z,17.55
2017-07-27T01:11:11.186Z,17.54
2017-07-27T01:12:20.727Z,17.55
2017-07-27T01:13:30.274Z,17.59
2017-07-27T01:14:39.804Z,17.64
2017-07-27T01:15:49.805Z,17.56
2017-07-27T01:16:59.008Z,17.52
2017-07-27T01:18:08.539Z,17.51
2017-07-27T01:19:17.424Z,17.54
2017-07-27T01:20:26.954Z,17.51
2017-07-27T01:21:36.211Z,17.63
2017-07-27T01:22:45.094Z,17.58
2017-07-27T01:23:54.622Z,17.59
2017-07-27T01:25:04.476Z,17.56
2017-07-27T01:26:13.685Z,17.59
2017-07-27T01:27:23.327Z,17.51
2017-07-27T01:28:32.856Z,17.52
2017-07-27T01:29:42.061Z,17.56
2017-07-27T01:30:51.918Z,17.56
2017-07-27T01:32:01.134Z,17.59
2017-07-27T01:33:11.072Z,17.52
2017-07-27T01:34:20.601Z,17.56
2017-07-27T01:35:30.130Z,17.64
2017-07-27T01:36:39.013Z,17.52
2017-07-27T01:37:48.543Z,17.55
2017-07-27T01:38:58.594Z,17.58
2017-07-27T01:40:08.449Z,17.49
2017-07-27T01:41:18.303Z,17.52
2017-07-27T01:42:28.160Z,17.49
2017-07-27T01:43:38.012Z,17.62
2017-07-27T01:44:48.023Z,17.59
2017-07-27T01:45:57.877Z,17.56
2017-07-27T01:47:07.083Z,17.54
2017-07-27T01:48:15.965Z,17.54
2017-07-27T01:49:25.172Z,17.58
2017-07-27T01:50:35.322Z,17.62
2017-07-27T01:51:44.849Z,17.58
2017-07-27T01:52:53.731Z,17.58
2017-07-27T01:54:03.274Z,17.58
2017-07-27T01:55:12.808Z,17.63
2017-07-27T01:56:22.546Z,17.56
2017-07-27T01:57:32.394Z,17.55
2017-07-27T01:58:41.599Z,17.54
2017-07-27T01:59:50.808Z,17.55
2017-07-27T02:01:00.663Z,17.54
2017-07-27T02:02:10.495Z,17.52
2017-07-27T02:03:19.378Z,17.62
2017-07-27T02:04:28.591Z,17.58
2017-07-27T02:05:38.442Z,17.54
2017-07-27T02:06:47.325Z,17.46
2017-07-27T02:07:56.589Z,17.58
2017-07-27T02:09:05.801Z,17.56
2017-07-27T02:10:15.662Z,17.56
2017-07-27T02:11:24.873Z,17.54
2017-07-27T02:12:34.406Z,17.58
2017-07-27T02:13:44.233Z,17.55
2017-07-27T02:14:53.435Z,17.54
2017-07-27T02:16:02.325Z,17.56
2017-07-27T02:17:11.854Z,17.55
2017-07-27T02:18:21.391Z,17.56
2017-07-27T02:19:31.024Z,17.54
2017-07-27T02:20:40.878Z,17.52
2017-07-27T02:21:50.415Z,17.44
2017-07-27T02:23:00.592Z,17.68
2017-07-27T02:24:10.445Z,17.7
2017-07-27T02:25:19.848Z,17.7
2017-07-27T02:26:29.054Z,17.7
2017-07-27T02:27:38.585Z,17.7
2017-07-27T02:28:47.478Z,17.68
2017-07-27T02:29:56.371Z,17.66
2017-07-27T02:31:06.228Z,17.66
2017-07-27T02:32:16.078Z,17.68
2017-07-27T02:33:25.611Z,17.68
2017-07-27T02:34:34.822Z,17.75
2017-07-27T02:35:44.032Z,17.75
2017-07-27T02:36:53.280Z,17.7
2017-07-27T02:38:03.141Z,17.78
2017-07-27T02:39:13.324Z,17.75
2017-07-27T02:40:23.180Z,17.82
2017-07-27T02:41:32.384Z,17.66
2017-07-27T02:42:41.910Z,17.72
2017-07-27T02:43:51.440Z,17.64
2017-07-27T02:45:00.644Z,17.75
2017-07-27T02:46:09.851Z,17.81
2017-07-27T02:47:19.387Z,17.82
2017-07-27T02:48:28.898Z,17.78
2017-07-27T02:49:38.107Z,17.78
2017-07-27T02:50:47.634Z,17.82
2017-07-27T02:51:57.169Z,17.79
2017-07-27T02:53:07.026Z,17.86
2017-07-27T02:54:15.957Z,17.86
2017-07-27T02:55:25.812Z,17.9
2017-07-27T02:56:35.018Z,17.9
2017-07-27T02:57:44.226Z,17.89
2017-07-27T02:58:53.436Z,17.9
2017-07-27T03:00:02.790Z,17.87
2017-07-27T03:01:12.322Z,17.9
2017-07-27T03:02:21.536Z,17.86
2017-07-27T03:03:30.752Z,17.86
2017-07-27T03:04:39.961Z,17.86
2017-07-27T03:05:48.895Z,17.9
2017-07-27T03:06:58.439Z,17.86
2017-07-27T03:08:07.965Z,17.89
2017-07-27T03:09:16.846Z,17.93
2017-07-27T03:10:26.069Z,17.99
2017-07-27T03:11:35.712Z,18
2017-07-27T03:12:44.922Z,17.97
2017-07-27T03:13:54.132Z,17.89
2017-07-27T03:15:03.665Z,17.97
2017-07-27T03:16:13.520Z,17.99
2017-07-27T03:17:23.079Z,17.93
2017-07-27T03:18:32.285Z,18
2017-07-27T03:19:41.541Z,17.96
2017-07-27T03:20:50.744Z,18.03
2017-07-27T03:21:59.951Z,18.02
2017-07-27T03:23:09.855Z,18.02
2017-07-27T03:24:19.064Z,18
2017-07-27T03:25:28.273Z,17.97
2017-07-27T03:26:38.450Z,17.97
2017-07-27T03:27:47.983Z,17.99
2017-07-27T03:28:56.862Z,17.99
2017-07-27T03:30:06.726Z,17.96
2017-07-27T03:31:16.269Z,18
2017-07-27T03:32:25.803Z,17.95
2017-07-27T03:33:35.661Z,17.95
2017-07-27T03:34:44.594Z,17.93
2017-07-27T03:35:53.803Z,17.95
2017-07-27T03:37:03.978Z,18
2017-07-27T03:38:13.180Z,17.99
2017-07-27T03:39:22.061Z,18
2017-07-27T03:40:31.791Z,17.99
2017-07-27T03:41:41.001Z,17.96
2017-07-27T03:42:50.209Z,17.96
2017-07-27T03:43:59.416Z,17.99
2017-07-27T03:45:08.623Z,18
2017-07-27T03:46:18.131Z,17.99
2017-07-27T03:47:27.011Z,17.97
2017-07-27T03:48:36.216Z,17.97
2017-07-27T03:49:45.428Z,17.93
2017-07-27T03:50:54.956Z,17.97
2017-07-27T03:52:04.640Z,17.97
2017-07-27T03:53:13.844Z,17.97
2017-07-27T03:54:23.693Z,18
2017-07-27T03:55:32.911Z,18.05
2017-07-27T03:56:41.793Z,17.97
2017-07-27T03:57:51.698Z,18.02
2017-07-27T03:59:00.583Z,18.02
2017-07-27T04:00:09.793Z,18.02
2017-07-27T04:01:18.996Z,18.1
2017-07-27T04:02:27.874Z,18.1
2017-07-27T04:03:37.730Z,18.12
2017-07-27T04:04:47.261Z,18.05
2017-07-27T04:05:56.793Z,18.1
2017-07-27T04:07:06.970Z,18.1
2017-07-27T04:08:16.176Z,18.07
2017-07-27T04:09:25.679Z,18.07
2017-07-27T04:10:34.562Z,18.08
2017-07-27T04:11:43.768Z,18.18
2017-07-27T04:12:52.975Z,18.11
2017-07-27T04:14:02.829Z,18.18
2017-07-27T04:15:12.709Z,18.2
2017-07-27T04:16:22.236Z,18.1
2017-07-27T04:17:31.437Z,18.12
2017-07-27T04:18:40.316Z,18.23
2017-07-27T04:19:50.510Z,18.18
2017-07-27T04:21:00.154Z,18.03
2017-07-27T04:22:09.381Z,18.12
2017-07-27T04:23:18.591Z,18.05
2017-07-27T04:24:28.126Z,18.05
2017-07-27T04:25:37.332Z,18
2017-07-27T04:26:47.013Z,18.05
2017-07-27T04:27:56.217Z,17.96
2017-07-27T04:29:05.098Z,17.99
2017-07-27T04:30:14.948Z,18.03
2017-07-27T04:31:24.477Z,17.99
2017-07-27T04:32:34.132Z,17.93
2017-07-27T04:33:43.021Z,17.86
2017-07-27T04:34:51.908Z,17.74
2017-07-27T04:36:00.791Z,17.96
2017-07-27T04:37:10.643Z,17.84
2017-07-27T04:38:20.277Z,17.75
2017-07-27T04:39:29.810Z,17.87
2017-07-27T04:40:39.346Z,17.89
2017-07-27T04:41:49.204Z,17.81
2017-07-27T04:42:59.061Z,17.77
2017-07-27T04:44:08.096Z,17.75
2017-07-27T04:45:17.624Z,17.72
2017-07-27T04:46:26.834Z,17.78
2017-07-27T04:47:35.720Z,17.75
2017-07-27T04:48:45.254Z,17.78
2017-07-27T04:49:54.135Z,17.77
2017-07-27T04:51:03.340Z,17.81
2017-07-27T04:52:13.197Z,17.75
2017-07-27T04:53:22.728Z,17.79
2017-07-27T04:54:32.261Z,17.81
2017-07-27T04:55:41.788Z,17.81
2017-07-27T04:56:51.318Z,17.81
2017-07-27T04:58:00.522Z,17.92
2017-07-27T04:59:10.056Z,17.87
2017-07-27T05:00:19.297Z,17.89
2017-07-27T05:01:28.331Z,17.86
2017-07-27T05:02:37.538Z,17.86
2017-07-27T05:03:47.075Z,17.86
2017-07-27T05:04:55.960Z,17.89
2017-07-27T05:06:05.492Z,17.93
2017-07-27T05:07:15.230Z,17.92
2017-07-27T05:08:24.448Z,17.81
2017-07-27T05:09:34.301Z,17.9
2017-07-27T05:10:43.182Z,17.9
2017-07-27T05:11:52.714Z,17.86
2017-07-27T05:13:02.253Z,17.79
2017-07-27T05:14:11.782Z,17.84
2017-07-27T05:15:20.986Z,17.81
2017-07-27T05:16:30.516Z,17.75
2017-07-27T05:17:40.372Z,17.72
2017-07-27T05:18:50.277Z,17.78
2017-07-27T05:19:59.810Z,17.81
2017-07-27T05:21:09.351Z,17.9
2017-07-27T05:22:18.557Z,17.89
2017-07-27T05:23:27.437Z,17.86
2017-07-27T05:24:36.967Z,17.87
2017-07-27T05:25:46.176Z,17.89
2017-07-27T05:26:55.702Z,17.86
2017-07-27T05:28:04.913Z,17.93
2017-07-27T05:29:14.124Z,17.92
2017-07-27T05:30:23.760Z,17.9
2017-07-27T05:31:33.293Z,17.84
2017-07-27T05:32:42.825Z,17.9
2017-07-27T05:33:52.358Z,17.96
2017-07-27T05:35:01.885Z,17.97
2017-07-27T05:36:11.331Z,17.97
2017-07-27T05:37:20.551Z,17.99
2017-07-27T05:38:29.762Z,17.99
2017-07-27T05:39:39.295Z,18.07
2017-07-27T05:40:48.177Z,18.03
2017-07-27T05:41:58.097Z,18.08
2017-07-27T05:43:06.989Z,18.17
2017-07-27T05:44:16.530Z,18.17
2017-07-27T05:45:25.745Z,18.2
2017-07-27T05:46:34.966Z,18.15
2017-07-27T05:47:44.506Z,18.18
2017-07-27T05:48:54.691Z,18.18
2017-07-27T05:50:04.228Z,18.15
2017-07-27T05:51:14.085Z,18.11
2017-07-27T05:52:23.292Z,18.2
2017-07-27T05:53:32.426Z,18.3
2017-07-27T05:54:41.637Z,18.12
2017-07-27T05:55:50.862Z,18.18
2017-07-27T05:56:59.748Z,18.21
2017-07-27T05:58:09.282Z,18.3
2017-07-27T05:59:18.912Z,18.3
2017-07-27T06:00:28.125Z,18.32
2017-07-27T06:01:37.012Z,18.25
2017-07-27T06:02:46.879Z,18.29
2017-07-27T06:03:56.092Z,18.29
2017-07-27T06:05:05.723Z,18.29
2017-07-27T06:06:15.273Z,18.36
2017-07-27T06:07:24.808Z,18.42
2017-07-27T06:08:34.663Z,18.39
2017-07-27T06:09:43.871Z,18.47
2017-07-27T06:10:53.131Z,18.44
2017-07-27T06:12:02.336Z,18.54
2017-07-27T06:13:12.190Z,18.42
2017-07-27T06:14:21.405Z,18.42
2017-07-27T06:15:31.591Z,18.57
2017-07-27T06:16:41.122Z,18.57
2017-07-27T06:17:50.652Z,18.6
2017-07-27T06:18:59.909Z,18.65
2017-07-27T06:20:09.142Z,18.62
2017-07-27T06:21:18.995Z,18.69
2017-07-27T06:22:27.934Z,18.63
2017-07-27T06:23:37.144Z,18.69
2017-07-27T06:24:47.049Z,18.65
2017-07-27T06:25:57.243Z,18.65
2017-07-27T06:27:07.096Z,18.8
2017-07-27T06:28:16.954Z,18.76
2017-07-27T06:29:25.847Z,18.8
2017-07-27T06:30:35.418Z,18.72
2017-07-27T06:31:44.956Z,18.81
2017-07-27T06:32:54.165Z,18.73
2017-07-27T06:34:03.704Z,18.73
2017-07-27T06:35:13.218Z,18.73
2017-07-27T06:36:22.764Z,18.82
2017-07-27T06:37:32.297Z,18.87
2017-07-27T06:38:42.483Z,18.84
2017-07-27T06:39:52.047Z,18.84
2017-07-27T06:41:01.581Z,18.84
2017-07-27T06:42:11.126Z,18.85
2017-07-27T06:43:20.887Z,18.98
2017-07-27T06:44:30.418Z,18.85
2017-07-27T06:45:39.630Z,18.98
2017-07-27T06:46:49.166Z,18.94
2017-07-27T06:47:58.697Z,18.95
2017-07-27T06:49:07.609Z,18.92
2017-07-27T06:50:16.824Z,18.95
2017-07-27T06:51:26.686Z,18.92
2017-07-27T06:52:35.917Z,19.02
2017-07-27T06:53:45.449Z,19.08
2017-07-27T06:54:54.659Z,19.06
2017-07-27T06:56:04.518Z,19.1
2017-07-27T06:57:13.732Z,19.04
2017-07-27T06:58:23.268Z,19.11
2017-07-27T06:59:33.278Z,19.13
2017-07-27T07:00:42.820Z,19.19
2017-07-27T07:01:51.705Z,19.29
2017-07-27T07:03:01.236Z,19.33
2017-07-27T07:04:10.767Z,19.41
2017-07-27T07:05:20.308Z,19.44
2017-07-27T07:06:29.515Z,19.41
2017-07-27T07:07:39.052Z,19.5
2017-07-27T07:08:48.270Z,19.56
2017-07-27T07:09:57.484Z,19.56
2017-07-27T07:11:06.892Z,19.59
2017-07-27T07:12:16.432Z,19.73
2017-07-27T07:13:25.321Z,19.71
2017-07-27T07:14:34.857Z,19.84
2017-07-27T07:15:44.736Z,19.81
2017-07-27T07:16:53.635Z,19.87
2017-07-27T07:18:03.500Z,19.92
2017-07-27T07:19:12.711Z,20.02
2017-07-27T07:20:22.893Z,20.05
2017-07-27T07:21:33.085Z,19.96
2017-07-27T07:22:42.447Z,20.1
2017-07-27T07:23:51.979Z,20.06
2017-07-27T07:25:00.863Z,20.05
2017-07-27T07:26:10.398Z,20.03
2017-07-27T07:27:19.936Z,20.13
2017-07-27T07:28:29.668Z,20.06
2017-07-27T07:29:39.205Z,20.18
2017-07-27T07:30:48.762Z,20.08
2017-07-27T07:31:58.297Z,20.08
2017-07-27T07:33:07.505Z,20.03
2017-07-27T07:34:17.338Z,20.1
2017-07-27T07:35:27.210Z,20.05
2017-07-27T07:36:36.423Z,20.08
2017-07-27T07:37:46.607Z,20.06
2017-07-27T07:38:55.821Z,20.13
2017-07-27T07:40:05.133Z,20.14
2017-07-27T07:41:15.008Z,20.1
2017-07-27T07:42:24.219Z,20.17
2017-07-27T07:43:33.754Z,20.21
2017-07-27T07:44:42.967Z,20.16
2017-07-27T07:45:52.327Z,20.17
2017-07-27T07:47:01.900Z,20.13
2017-07-27T07:48:12.084Z,20.08
2017-07-27T07:49:21.613Z,20.16
2017-07-27T07:50:31.153Z,20.28
2017-07-27T07:51:40.849Z,20.23
2017-07-27T07:52:50.385Z,20.29
2017-07-27T07:54:00.574Z,20.32
2017-07-27T07:55:10.431Z,20.36
2017-07-27T07:56:19.968Z,20.38
2017-07-27T07:57:29.919Z,20.28
2017-07-27T07:58:39.834Z,20.42
2017-07-27T07:59:49.404Z,20.28
2017-07-27T08:00:58.681Z,20.39
2017-07-27T08:02:08.245Z,20.38
2017-07-27T08:03:18.254Z,20.38
2017-07-27T08:04:27.789Z,20.41
2017-07-27T08:05:37.321Z,20.32
2017-07-27T08:06:46.541Z,20.48
2017-07-27T08:07:55.751Z,20.54
2017-07-27T08:09:05.286Z,20.51
2017-07-27T08:10:14.497Z,20.55
2017-07-27T08:11:24.361Z,20.59
2017-07-27T08:12:33.586Z,20.72
2017-07-27T08:13:43.809Z,20.72
2017-07-27T08:14:53.074Z,20.69
2017-07-27T08:16:02.933Z,20.67
2017-07-27T08:17:11.826Z,20.62
2017-07-27T08:18:21.039Z,20.62
2017-07-27T08:19:30.895Z,20.57
2017-07-27T08:20:40.748Z,20.58
2017-07-27T08:21:49.964Z,20.59
2017-07-27T08:22:59.827Z,20.66
2017-07-27T08:24:09.384Z,20.72
2017-07-27T08:25:19.571Z,20.64
2017-07-27T08:26:29.430Z,20.72
2017-07-27T08:27:39.299Z,20.74
2017-07-27T08:28:48.518Z,20.8
2017-07-27T08:29:58.704Z,20.69
2017-07-27T08:31:08.904Z,20.77
2017-07-27T08:32:18.269Z,20.85
2017-07-27T08:33:27.801Z,20.87
2017-07-27T08:34:37.041Z,20.94
2017-07-27T08:35:46.575Z,20.97
2017-07-27T08:36:55.484Z,20.92
2017-07-27T08:38:05.765Z,20.95
2017-07-27T08:39:15.633Z,21.01
2017-07-27T08:40:25.177Z,21.03
2017-07-27T08:41:34.721Z,21.01
2017-07-27T08:42:44.249Z,20.98
2017-07-27T08:43:53.933Z,21.03
2017-07-27T08:45:04.442Z,21.06
2017-07-27T08:46:13.654Z,21.09
2017-07-27T08:47:23.510Z,21.14
2017-07-27T08:48:33.044Z,21.13
2017-07-27T08:49:42.627Z,21.19
2017-07-27T08:50:51.517Z,21.24
2017-07-27T08:52:01.054Z,21.22
2017-07-27T08:53:10.264Z,21.27
2017-07-27T08:54:19.800Z,21.31
2017-07-27T08:55:29.334Z,21.29
2017-07-27T08:56:38.221Z,21.32
2017-07-27T08:57:47.760Z,21.37
2017-07-27T08:58:56.649Z,21.35
2017-07-27T09:00:05.534Z,21.43
2017-07-27T09:01:15.399Z,21.37
2017-07-27T09:02:24.293Z,21.44
2017-07-27T09:03:33.502Z,21.43
2017-07-27T09:04:42.718Z,21.42
2017-07-27T09:05:51.930Z,21.43
2017-07-27T09:07:01.624Z,21.58
2017-07-27T09:08:10.845Z,21.61
2017-07-27T09:09:19.739Z,21.62
2017-07-27T09:10:29.278Z,21.53
2017-07-27T09:11:38.488Z,21.64
2017-07-27T09:12:47.746Z,21.59
2017-07-27T09:13:56.957Z,21.58
2017-07-27T09:15:06.500Z,21.56
2017-07-27T09:16:16.036Z,21.59
2017-07-27T09:17:24.924Z,21.72
2017-07-27T09:18:34.285Z,21.64
2017-07-27T09:19:43.816Z,21.62
2017-07-27T09:20:53.676Z,21.62
2017-07-27T09:22:02.577Z,21.8
2017-07-27T09:23:11.803Z,21.79
2017-07-27T09:24:20.691Z,21.67
2017-07-27T09:25:30.238Z,21.77
2017-07-27T09:26:39.127Z,21.62
2017-07-27T09:27:48.013Z,21.54
2017-07-27T09:28:57.224Z,21.61
2017-07-27T09:30:07.385Z,21.64
2017-07-27T09:31:16.602Z,21.64
2017-07-27T09:32:25.817Z,21.75
2017-07-27T09:33:35.352Z,21.74
2017-07-27T09:34:44.586Z,21.71
2017-07-27T09:35:54.268Z,21.75
2017-07-27T09:37:04.123Z,21.74
2017-07-27T09:38:13.667Z,21.69
2017-07-27T09:39:22.875Z,21.68
2017-07-27T09:40:32.081Z,21.71
2017-07-27T09:41:42.142Z,21.77
2017-07-27T09:42:51.686Z,21.86
2017-07-27T09:44:00.896Z,21.77
2017-07-27T09:45:11.085Z,21.77
2017-07-27T09:46:20.621Z,21.82
2017-07-27T09:47:30.307Z,21.8
2017-07-27T09:48:39.203Z,21.71
2017-07-27T09:49:48.752Z,21.83
2017-07-27T09:50:58.937Z,21.75
2017-07-27T09:52:08.470Z,21.77
2017-07-27T09:53:18.163Z,21.79
2017-07-27T09:54:27.372Z,21.83
2017-07-27T09:55:36.258Z,21.88
2017-07-27T09:56:45.793Z,21.88
2017-07-27T09:57:55.340Z,21.77
2017-07-27T09:59:05.320Z,21.9
2017-07-27T10:00:14.860Z,21.79
2017-07-27T10:01:24.723Z,21.91
2017-07-27T10:02:34.262Z,21.99
2017-07-27T10:03:43.150Z,21.96
2017-07-27T10:04:52.290Z,22
2017-07-27T10:06:01.522Z,22.06
2017-07-27T10:07:11.703Z,22.09
2017-07-27T10:08:20.590Z,22.09
2017-07-27T10:09:30.460Z,21.98
2017-07-27T10:10:39.822Z,21.98
2017-07-27T10:11:50.008Z,22
2017-07-27T10:12:59.223Z,21.98
2017-07-27T10:14:08.759Z,21.88
2017-07-27T10:15:17.973Z,21.84
2017-07-27T10:16:27.187Z,21.72
2017-07-27T10:17:36.407Z,21.83
2017-07-27T10:18:45.622Z,21.77
2017-07-27T10:19:55.159Z,21.82
2017-07-27T10:21:04.372Z,21.79
2017-07-27T10:22:14.054Z,21.77
2017-07-27T10:23:23.273Z,21.9
2017-07-27T10:24:32.812Z,21.88
2017-07-27T10:25:42.365Z,21.91
2017-07-27T10:26:51.902Z,21.9
2017-07-27T10:28:00.993Z,21.98
2017-07-27T10:29:11.186Z,22.03
2017-07-27T10:30:20.721Z,22.02
2017-07-27T10:31:29.936Z,22
2017-07-27T10:32:38.824Z,22.09
2017-07-27T10:33:48.811Z,22.14
2017-07-27T10:34:57.699Z,22.21
2017-07-27T10:36:07.234Z,22.24
2017-07-27T10:37:16.123Z,22.27
2017-07-27T10:38:25.025Z,22.33
2017-07-27T10:39:34.785Z,22.35
2017-07-27T10:40:44.328Z,22.43
2017-07-27T10:41:53.891Z,22.39
2017-07-27T10:43:03.427Z,22.43
2017-07-27T10:44:12.996Z,22.49
2017-07-27T10:45:22.305Z,22.49
2017-07-27T10:46:31.526Z,22.52
2017-07-27T10:47:41.063Z,22.58
2017-07-27T10:48:49.956Z,22.52
2017-07-27T10:49:59.179Z,22.55
2017-07-27T10:51:08.539Z,22.49
2017-07-27T10:52:18.726Z,22.58
2017-07-27T10:53:28.262Z,22.55
2017-07-27T10:54:38.129Z,22.49
2017-07-27T10:55:47.668Z,22.55
2017-07-27T10:56:56.556Z,22.52
2017-07-27T10:58:06.093Z,22.45
2017-07-27T10:59:15.954Z,22.39
2017-07-27T11:00:25.165Z,22.4
2017-07-27T11:01:35.020Z,22.43
2017-07-27T11:02:44.338Z,22.43
2017-07-27T11:03:53.878Z,22.4
2017-07-27T11:05:03.740Z,22.4
2017-07-27T11:06:13.288Z,22.37
2017-07-27T11:07:22.498Z,22.3
2017-07-27T11:08:31.959Z,22.33
2017-07-27T11:09:40.847Z,22.22
2017-07-27T11:10:50.390Z,22.28
2017-07-27T11:11:59.284Z,22.27
2017-07-27T11:13:08.822Z,22.27
2017-07-27T11:14:18.925Z,22.31
2017-07-27T11:15:28.458Z,22.37
2017-07-27T11:16:38.315Z,22.33
2017-07-27T11:17:47.529Z,22.3
2017-07-27T11:18:56.474Z,22.46
2017-07-27T11:20:06.022Z,22.49
2017-07-27T11:21:15.237Z,22.52
2017-07-27T11:22:24.776Z,22.49
2017-07-27T11:23:34.316Z,22.43
2017-07-27T11:24:44.188Z,22.46
2017-07-27T11:25:53.455Z,22.57
2017-07-27T11:27:02.995Z,22.58
2017-07-27T11:28:12.212Z,22.46
2017-07-27T11:29:21.750Z,22.51
2017-07-27T11:30:30.639Z,22.52
2017-07-27T11:31:39.524Z,22.58
2017-07-27T11:32:48.413Z,22.61
2017-07-27T11:33:57.333Z,22.52
2017-07-27T11:35:07.539Z,22.46
2017-07-27T11:36:16.747Z,22.47
2017-07-27T11:37:26.442Z,22.45
2017-07-27T11:38:35.654Z,22.43
2017-07-27T11:39:45.843Z,22.36
2017-07-27T11:40:55.384Z,22.45
2017-07-27T11:42:04.920Z,22.52
2017-07-27T11:43:14.433Z,22.51
2017-07-27T11:44:23.970Z,22.49
2017-07-27T11:45:33.513Z,22.45
2017-07-27T11:46:42.728Z,22.58
2017-07-27T11:47:52.270Z,22.45
2017-07-27T11:49:01.855Z,22.52
2017-07-27T11:50:11.734Z,22.61
2017-07-27T11:51:20.624Z,22.52
2017-07-27T11:52:30.156Z,22.61
2017-07-27T11:53:39.370Z,22.61
2017-07-27T11:54:49.057Z,22.62
2017-07-27T11:55:57.945Z,22.62
2017-07-27T11:57:07.479Z,22.57
2017-07-27T11:58:17.027Z,22.8
2017-07-27T11:59:26.889Z,22.7
2017-07-27T12:00:35.974Z,22.75
2017-07-27T12:01:45.509Z,22.77
2017-07-27T12:02:55.052Z,22.82
2017-07-27T12:04:05.235Z,22.98
2017-07-27T12:05:14.767Z,23
2017-07-27T12:06:24.127Z,23.02
2017-07-27T12:07:33.346Z,23.13
2017-07-27T12:08:42.888Z,23.2
2017-07-27T12:09:52.427Z,23.38
2017-07-27T12:11:01.645Z,23.33
2017-07-27T12:12:11.667Z,23.5
2017-07-27T12:13:21.561Z,23.66
2017-07-27T12:14:31.115Z,23.7
2017-07-27T12:15:40.009Z,23.75
2017-07-27T12:16:49.556Z,24.09
2017-07-27T12:17:58.884Z,24.42
2017-07-27T12:19:08.437Z,24.46
2017-07-27T12:20:18.637Z,24.18
2017-07-27T12:21:27.854Z,24.08
2017-07-27T12:22:37.070Z,23.97
2017-07-27T12:23:47.084Z,23.98
2017-07-27T12:24:56.324Z,23.98
2017-07-27T12:26:05.870Z,24.08
2017-07-27T12:27:16.072Z,23.98
2017-07-27T12:28:25.611Z,23.94
2017-07-27T12:29:34.556Z,23.9
2017-07-27T12:30:44.101Z,23.95
2017-07-27T12:31:53.641Z,24.08
2017-07-27T12:33:03.511Z,24
2017-07-27T12:34:13.062Z,24.03
2017-07-27T12:35:23.280Z,24.21
2017-07-27T12:36:32.831Z,24.03
2017-07-27T12:37:42.367Z,23.97
2017-07-27T12:38:51.905Z,23.93
2017-07-27T12:40:01.788Z,23.98
2017-07-27T12:41:11.492Z,23.94
2017-07-27T12:42:20.720Z,24.1
2017-07-27T12:43:30.263Z,23.93
2017-07-27T12:44:39.483Z,23.93
2017-07-27T12:45:48.701Z,24
2017-07-27T12:46:58.071Z,24.02
2017-07-27T12:48:07.290Z,24.09
2017-07-27T12:49:16.503Z,24.05
2017-07-27T12:50:26.045Z,24.05
2017-07-27T12:51:35.590Z,24.16
2017-07-27T12:52:45.205Z,24.16
2017-07-27T12:53:54.768Z,24.31
2017-07-27T12:55:03.980Z,24.28
2017-07-27T12:56:13.203Z,24.28
2017-07-27T12:57:22.745Z,24.49
2017-07-27T12:58:31.641Z,24.5
2017-07-27T12:59:40.863Z,24.45
2017-07-27T13:00:50.085Z,24.53
2017-07-27T13:01:59.980Z,24.65
2017-07-27T13:03:09.199Z,24.77
2017-07-27T13:04:19.232Z,24.81
2017-07-27T13:05:28.134Z,24.76
2017-07-27T13:06:37.674Z,24.77
2017-07-27T13:07:46.886Z,24.85
2017-07-27T13:08:56.435Z,24.76
2017-07-27T13:10:06.225Z,24.78
2017-07-27T13:11:15.445Z,24.93
2017-07-27T13:12:25.315Z,25.02
2017-07-27T13:13:34.532Z,24.85
2017-07-27T13:14:43.423Z,25.02
2017-07-27T13:15:52.791Z,24.9
2017-07-27T13:17:01.690Z,24.8
2017-07-27T13:18:11.248Z,24.78
2017-07-27T13:19:21.116Z,24.71
2017-07-27T13:20:30.017Z,24.53
2017-07-27T13:21:40.227Z,24.55
2017-07-27T13:22:49.769Z,24.42
2017-07-27T13:23:58.984Z,24.53
2017-07-27T13:25:08.526Z,24.78
2017-07-27T13:26:17.756Z,24.83
2017-07-27T13:27:27.500Z,24.99
2017-07-27T13:28:37.694Z,24.98
2017-07-27T13:29:46.594Z,25.05
2017-07-27T13:30:55.820Z,25.02
2017-07-27T13:32:05.390Z,25.02
2017-07-27T13:33:15.364Z,24.95
2017-07-27T13:34:25.238Z,24.9
2017-07-27T13:35:35.110Z,24.81
2017-07-27T13:36:45.009Z,24.85
2017-07-27T13:37:54.254Z,24.76
2017-07-27T13:39:03.635Z,24.73
2017-07-27T13:40:12.876Z,24.73
2017-07-27T13:41:22.750Z,24.67
2017-07-27T13:42:31.645Z,24.65
2017-07-27T13:43:41.189Z,24.64
2017-07-27T13:44:51.220Z,24.69
2017-07-27T13:46:00.758Z,24.83
2017-07-27T13:47:10.307Z,24.85
2017-07-27T13:48:19.847Z,24.9
2017-07-27T13:49:29.392Z,24.93
2017-07-27T13:50:38.772Z,24.87
2017-07-27T13:51:48.638Z,24.84
2017-07-27T13:52:57.529Z,24.73
2017-07-27T13:54:06.751Z,24.68
2017-07-27T13:55:15.964Z,24.69
2017-07-27T13:56:25.946Z,24.71
2017-07-27T13:57:35.809Z,24.8
2017-07-27T13:58:45.343Z,24.73
2017-07-27T13:59:54.562Z,24.6
2017-07-27T14:01:04.104Z,24.5
2017-07-27T14:02:14.026Z,24.43
2017-07-27T14:03:23.569Z,24.4
2017-07-27T14:04:33.430Z,24.49
2017-07-27T14:05:42.968Z,24.37
2017-07-27T14:06:52.506Z,24.39
2017-07-27T14:08:02.359Z,24.45
2017-07-27T14:09:12.247Z,24.4
2017-07-27T14:10:21.461Z,24.53
2017-07-27T14:11:30.354Z,24.5
2017-07-27T14:12:39.894Z,24.62
2017-07-27T14:13:49.320Z,24.68
2017-07-27T14:14:58.532Z,24.68
2017-07-27T14:16:08.397Z,24.57
2017-07-27T14:17:17.938Z,24.45
2017-07-27T14:18:27.155Z,24.34
2017-07-27T14:19:36.517Z,24.43
2017-07-27T14:20:45.731Z,24.43
2017-07-27T14:21:54.630Z,24.42
2017-07-27T14:23:03.849Z,24.34
2017-07-27T14:24:13.382Z,24.32
2017-07-27T14:25:22.795Z,24.34
2017-07-27T14:26:31.684Z,24.2
2017-07-27T14:27:40.911Z,24.18
2017-07-27T14:28:50.128Z,24.21
2017-07-27T14:29:59.669Z,24.18
2017-07-27T14:31:09.308Z,24.22
2017-07-27T14:32:18.840Z,24.27
2017-07-27T14:33:28.061Z,24.27
2017-07-27T14:34:37.924Z,24.16
2017-07-27T14:35:46.818Z,24.15
2017-07-27T14:36:56.037Z,24.25
2017-07-27T14:38:05.268Z,24.16
2017-07-27T14:39:14.808Z,24.2
2017-07-27T14:40:24.353Z,24.18
2017-07-27T14:41:33.246Z,24.35
2017-07-27T14:42:43.217Z,24.46
2017-07-27T14:43:52.429Z,24.53
2017-07-27T14:45:02.289Z,24.46
2017-07-27T14:46:11.829Z,24.46
2017-07-27T14:47:21.685Z,24.49
2017-07-27T14:48:31.053Z,24.58
2017-07-27T14:49:39.949Z,24.32
2017-07-27T14:50:49.172Z,24.32
2017-07-27T14:51:59.036Z,24.35
2017-07-27T14:53:08.897Z,24.18
2017-07-27T14:54:17.792Z,24.16
2017-07-27T14:55:27.333Z,24.1
2017-07-27T14:56:36.227Z,24.08
2017-07-27T14:57:45.763Z,23.94
2017-07-27T14:58:54.980Z,24